Crew | Aerofun Virtual



 METAR AND TAF INFORMATION
METAR FOR GMTT
ADDS - METARS form results

(0808 UTC 22 July 2019)
Data provider http://aviationweather.gov/metar/data/
 
METAR text: GMTT 220800Z 10013KT 060V130 CAVOK 29/20 Q1016 NOSIG
Conditions at: GMTT (TANGIER/BOUKHALF, MA) observed 0800 UTC 22 July 2019
Temperature: 29.0°C (84°F)
Dewpoint: 20.0°C (68°F) [RH = 58%]
Pressure (altimeter): 30.00 inches Hg (1016.0 mb)
Winds: from the E (100 degrees) at 15 MPH (13 knots; 6.7 m/s)
Visibility: 6 or more miles (10+ km)
Ceiling: ceiling and visibility are OK
Clouds: unknown
Weather: no significant weather observed at this time

METAR text: GMTT 220730Z 09011KT CAVOK 28/20 Q1015
Conditions at: GMTT (TANGIER/BOUKHALF, MA) observed 0730 UTC 22 July 2019
Temperature: 28.0°C (82°F)
Dewpoint: 20.0°C (68°F) [RH = 62%]
Pressure (altimeter): 29.97 inches Hg (1015.0 mb)
Winds: from the E (90 degrees) at 13 MPH (11 knots; 5.7 m/s)
Visibility: 6 or more miles (10+ km)
Ceiling: ceiling and visibility are OK
Clouds: unknown
Weather: no significant weather observed at this time

Forecast for: GMTT (TANGIER/BOUKHALF, MA)
Text: TAF GMTT 220500Z 2206/2312 25005KT 8000 NSC
Forecast period: 0600 UTC 22 July 2019 to 1200 UTC 23 July 2019
Forecast type: FROM: standard forecast or significant change
Winds: from the WSW (250 degrees) at 6 MPH (5 knots; 2.6 m/s)
Visibility: 5 miles (8 km)
Ceiling: unknown
Clouds: missing
Weather: no significant weather forecast for this period
Text: TEMPO 2208/2211 09015G25KT CAVOK
Forecast period: 0800 to 1100 UTC 22 July 2019
Forecast type: TEMPORARY: The following changes expected for less than half the time period
Winds: from the E (90 degrees) at 17 MPH (15 knots; 7.7 m/s)
gusting to 29 MPH (25 knots; 12.9 m/s)
Visibility: 6 or more miles 10+ km)
Ceiling: unknown
Clouds: missing
Weather: NSW  (no significant weather)

 AIRPORT MAP

 RUNWAY INFORMATION
Runway 07 Runway length 6562 ft Runway width 98 ft
Runway elevation 0 ft Runway displaced threshold 0 ft Runway heading 69
Runway 25 Runway length 6562 ft Runway width 98 ft
Runway elevation 0 ft Runway displaced threshold 0 ft Runway heading 249
Runway 10 Runway length 11483 ft Runway width 148 ft
Runway elevation 20 ft Runway displaced threshold 0 ft Runway heading 96
Runway 28 Runway length 11483 ft Runway width 148 ft
Runway elevation 62 ft Runway displaced threshold 1640 ft Runway heading 276

 AIRPORT FREQUENCIES
Type APP Name TANGER APP Frequency 121.2 MHZ
Type TWR Name TANGER TWR Frequency 119.5 MHZ

 AIRPORT NEAR NAVIGATION AIDS
Type VOR-DME Name Tanger Frequency 115900 KHZ